Time,TemperatureF,DewpointF,PressureIn,WindDirection,WindDirectionDegrees,WindSpeedMPH,WindSpeedGustMPH,Humidity,HourlyPrecipIn,Conditions,Clouds,dailyrainin,SoftwareType,DateUTC
2013-01-14 00:03:00,-8.6,-14.0,30.72,ESE,115,1.0,4.0,78,0.00,,,0.00,weatherlink.com 1.10,2013-01-14 07:03:00,
2013-01-14 00:18:00,-9.0,-14.0,30.73,ESE,115,0.0,3.0,77,0.00,,,0.00,weatherlink.com 1.10,2013-01-14 07:18:00,
2013-01-14 00:33:00,-9.3,-15.0,30.72,ESE,115,0.0,1.0,77,0.00,,,0.00,weatherlink.com 1.10,2013-01-14 07:33:00,
2013-01-14 00:49:00,-9.6,-15.0,30.72,ESE,115,0.0,1.0,77,0.00,,,0.00,weatherlink.com 1.10,2013-01-14 07:49:00,
2013-01-14 01:04:00,-9.9,-15.0,30.72,ESE,115,0.0,1.0,77,0.00,,,0.00,weatherlink.com 1.10,2013-01-14 08:04:00,
2013-01-14 01:19:00,-10.1,-15.0,30.71,ESE,115,1.0,1.0,77,0.00,,,0.00,weatherlink.com 1.10,2013-01-14 08:19:00,
2013-01-14 01:34:00,-10.2,-15.0,30.71,SE,136,3.0,4.0,78,0.00,,,0.00,weatherlink.com 1.10,2013-01-14 08:34:00,
2013-01-14 01:49:00,-9.6,-14.0,30.72,SE,137,0.0,3.0,79,0.00,,,0.00,weatherlink.com 1.10,2013-01-14 08:49:00,
2013-01-14 02:04:00,-9.6,-14.0,30.72,SE,137,0.0,2.0,79,0.00,,,0.00,weatherlink.com 1.10,2013-01-14 09:04:00,
2013-01-14 02:19:00,-9.3,-14.0,30.72,SE,137,0.0,2.0,80,0.00,,,0.00,weatherlink.com 1.10,2013-01-14 09:19:00,
2013-01-14 02:34:00,-8.7,-13.0,30.72,SE,137,0.0,1.0,80,0.00,,,0.00,weatherlink.com 1.10,2013-01-14 09:34:00,
2013-01-14 02:49:00,-8.1,-12.0,30.72,SE,137,0.0,1.0,81,0.00,,,0.00,weatherlink.com 1.10,2013-01-14 09:49:00,
2013-01-14 03:04:00,-7.6,-12.0,30.72,SE,137,0.0,3.0,81,0.00,,,0.00,weatherlink.com 1.10,2013-01-14 10:04:00,
2013-01-14 03:19:00,-9.7,-14.0,30.72,SE,137,1.0,3.0,83,0.00,,,0.00,weatherlink.com 1.10,2013-01-14 10:19:00,
2013-01-14 03:34:00,-9.4,-13.0,30.72,SE,137,2.0,2.0,82,0.00,,,0.00,weatherlink.com 1.10,2013-01-14 10:34:00,
2013-01-14 03:49:00,-8.2,-13.0,30.72,SE,137,0.0,2.0,78,0.00,,,0.00,weatherlink.com 1.10,2013-01-14 10:49:00,
2013-01-14 04:04:00,-8.6,-14.0,30.72,SE,137,0.0,4.0,78,0.00,,,0.00,weatherlink.com 1.10,2013-01-14 11:04:00,
2013-01-14 04:20:00,-8.8,-14.0,30.72,SE,137,2.0,2.0,78,0.00,,,0.00,weatherlink.com 1.10,2013-01-14 11:20:00,
2013-01-14 04:35:00,-8.8,-14.0,30.72,SE,137,0.0,2.0,79,0.00,,,0.00,weatherlink.com 1.10,2013-01-14 11:35:00,
2013-01-14 04:50:00,-8.9,-14.0,30.71,SSE,147,3.0,4.0,79,0.00,,,0.00,weatherlink.com 1.10,2013-01-14 11:50:00,
2013-01-14 05:05:00,-8.0,-12.0,30.72,SSE,148,2.0,4.0,82,0.00,,,0.00,weatherlink.com 1.10,2013-01-14 12:05:00,
2013-01-14 05:20:00,-7.0,-11.0,30.72,SSE,148,1.0,2.0,81,0.00,,,0.00,weatherlink.com 1.10,2013-01-14 12:20:00,
2013-01-14 05:38:00,-7.2,-12.0,30.73,SSE,160,3.0,4.0,80,0.00,,,0.00,weatherlink.com 1.10,2013-01-14 12:38:00,
2013-01-14 05:50:00,-6.7,-11.0,30.73,SSE,162,1.0,3.0,81,0.00,,,0.00,weatherlink.com 1.10,2013-01-14 12:50:00,
2013-01-14 06:05:00,-7.7,-12.0,30.73,SSE,168,0.0,4.0,83,0.00,,,0.00,weatherlink.com 1.10,2013-01-14 13:05:00,
2013-01-14 06:20:00,-8.1,-12.0,30.74,SSE,168,0.0,1.0,82,0.00,,,0.00,weatherlink.com 1.10,2013-01-14 13:20:00,
2013-01-14 06:35:00,-8.5,-13.0,30.75,SSE,168,1.0,3.0,82,0.00,,,0.00,weatherlink.com 1.10,2013-01-14 13:35:00,
2013-01-14 06:50:00,-8.3,-12.0,30.75,South,169,2.0,4.0,82,0.00,,,0.00,weatherlink.com 1.10,2013-01-14 13:50:00,
2013-01-14 07:08:00,-8.0,-12.0,30.76,South,188,3.0,4.0,83,0.00,,,0.00,weatherlink.com 1.10,2013-01-14 14:08:00,
2013-01-14 07:20:00,-7.3,-11.0,30.77,SSW,204,4.0,5.0,83,0.00,,,0.00,weatherlink.com 1.10,2013-01-14 14:20:00,
2013-01-14 07:35:00,-8.0,-12.0,30.77,SSW,209,5.0,6.0,81,0.00,,,0.00,weatherlink.com 1.10,2013-01-14 14:35:00,
2013-01-14 07:50:00,-7.5,-11.0,30.78,SW,222,3.0,6.0,83,0.00,,,0.00,weatherlink.com 1.10,2013-01-14 14:50:00,
2013-01-14 08:05:00,-6.3,-10.0,30.78,SW,223,3.0,5.0,83,0.00,,,0.00,weatherlink.com 1.10,2013-01-14 15:05:00,
2013-01-14 08:21:00,-5.2,-9.0,30.78,SW,223,3.0,5.0,84,0.00,,,0.00,weatherlink.com 1.10,2013-01-14 15:21:00,
2013-01-14 08:36:00,-3.3,-7.0,30.79,SW,223,2.0,6.0,83,0.00,,,0.00,weatherlink.com 1.10,2013-01-14 15:36:00,
2013-01-14 08:51:00,-1.9,-6.0,30.78,SW,227,1.0,6.0,84,0.00,,,0.00,weatherlink.com 1.10,2013-01-14 15:51:00,
2013-01-14 09:06:00,-1.2,-6.0,30.78,SW,227,0.0,2.0,81,0.00,,,0.00,weatherlink.com 1.10,2013-01-14 16:06:00,
2013-01-14 09:21:00,-1.5,-7.0,30.78,SW,227,3.0,3.0,78,0.00,,,0.00,weatherlink.com 1.10,2013-01-14 16:21:00,
2013-01-14 09:36:00,2.1,-3.0,30.78,SW,227,0.0,2.0,79,0.00,,,0.00,weatherlink.com 1.10,2013-01-14 16:36:00,
2013-01-14 09:51:00,3.3,-3.0,30.77,SW,227,1.0,3.0,76,0.00,,,0.00,weatherlink.com 1.10,2013-01-14 16:51:00,
2013-01-14 10:06:00,3.4,-3.0,30.77,SW,226,0.0,3.0,73,0.00,,,0.00,weatherlink.com 1.10,2013-01-14 17:06:00,
2013-01-14 10:21:00,4.9,-2.0,30.76,SW,223,2.0,4.0,73,0.00,,,0.00,weatherlink.com 1.10,2013-01-14 17:21:00,
2013-01-14 10:36:00,6.4,-1.0,30.76,SW,223,2.0,4.0,70,0.00,,,0.00,weatherlink.com 1.10,2013-01-14 17:36:00,
2013-01-14 10:51:00,8.2,-1.0,30.75,SW,223,0.0,3.0,66,0.00,,,0.00,weatherlink.com 1.10,2013-01-14 17:51:00,
2013-01-14 11:06:00,7.9,-2.0,30.73,SW,223,0.0,3.0,65,0.00,,,0.00,weatherlink.com 1.10,2013-01-14 18:06:00,
2013-01-14 11:21:00,7.5,-1.0,30.72,SW,223,1.0,3.0,68,0.00,,,0.00,weatherlink.com 1.10,2013-01-14 18:21:00,
2013-01-14 11:36:00,6.4,-2.0,30.72,SW,223,1.0,3.0,68,0.00,,,0.00,weatherlink.com 1.10,2013-01-14 18:36:00,
2013-01-14 11:52:00,6.7,-2.0,30.70,SW,223,0.0,2.0,69,0.00,,,0.00,weatherlink.com 1.10,2013-01-14 18:52:00,
2013-01-14 12:07:00,7.3,-1.0,30.69,SW,223,1.0,4.0,69,0.00,,,0.00,weatherlink.com 1.10,2013-01-14 19:07:00,
2013-01-14 12:22:00,7.7,-1.0,30.69,SW,217,3.0,5.0,69,0.00,,,0.00,weatherlink.com 1.10,2013-01-14 19:22:00,
2013-01-14 12:37:00,7.1,-1.0,30.68,NW,309,0.0,4.0,68,0.00,,,0.00,weatherlink.com 1.10,2013-01-14 19:37:00,
2013-01-14 13:07:00,5.6,-2.0,30.68,NW,325,0.0,3.0,70,0.00,,,0.00,weatherlink.com 1.10,2013-01-14 20:07:00,
2013-01-14 13:22:00,6.0,-1.0,30.68,NW,325,0.0,2.0,73,0.00,,,0.00,weatherlink.com 1.10,2013-01-14 20:22:00,
2013-01-14 13:37:00,5.9,-1.0,30.68,NW,325,2.0,4.0,74,0.00,,,0.00,weatherlink.com 1.10,2013-01-14 20:37:00,
2013-01-14 13:52:00,5.9,-1.0,30.69,NW,325,0.0,1.0,74,0.00,,,0.00,weatherlink.com 1.10,2013-01-14 20:52:00,
2013-01-14 14:07:00,6.0,-1.0,30.69,NW,325,0.0,3.0,74,0.00,,,0.00,weatherlink.com 1.10,2013-01-14 21:07:00,
2013-01-14 14:22:00,5.5,-1.0,30.70,NW,325,0.0,4.0,75,0.00,,,0.00,weatherlink.com 1.10,2013-01-14 21:22:00,
2013-01-14 14:37:00,4.5,-2.0,30.71,NNW,341,1.0,2.0,75,0.00,,,0.00,weatherlink.com 1.10,2013-01-14 21:37:00,
2013-01-14 14:52:00,4.0,-2.0,30.72,NNW,342,0.0,4.0,77,0.00,,,0.00,weatherlink.com 1.10,2013-01-14 21:52:00,
2013-01-14 15:08:00,4.0,-2.0,30.72,NNW,342,3.0,4.0,77,0.00,,,0.00,weatherlink.com 1.10,2013-01-14 22:08:00,
2013-01-14 15:23:00,4.1,-2.0,30.73,NNW,342,0.0,1.0,77,0.00,,,0.00,weatherlink.com 1.10,2013-01-14 22:23:00,
2013-01-14 15:38:00,4.4,-2.0,30.73,NNW,342,3.0,4.0,76,0.00,,,0.00,weatherlink.com 1.10,2013-01-14 22:38:00,
2013-01-14 15:53:00,3.7,-3.0,30.74,NNW,342,0.0,2.0,75,0.00,,,0.00,weatherlink.com 1.10,2013-01-14 22:53:00,
2013-01-14 16:08:00,2.5,-4.0,30.75,NNW,342,0.0,4.0,74,0.00,,,0.00,weatherlink.com 1.10,2013-01-14 23:08:00,
2013-01-14 16:23:00,1.4,-5.0,30.75,NNW,342,3.0,4.0,75,0.00,,,0.00,weatherlink.com 1.10,2013-01-14 23:23:00,
2013-01-14 16:53:00,0.6,-6.0,30.75,WNW,289,1.0,8.0,74,0.00,,,0.00,weatherlink.com 1.10,2013-01-14 23:53:00,
2013-01-14 17:08:00,1.0,-6.0,30.76,WSW,252,5.0,9.0,71,0.00,,,0.00,weatherlink.com 1.10,2013-01-15 00:08:00,
2013-01-14 17:23:00,1.1,-7.0,30.77,WSW,252,0.0,3.0,70,0.00,,,0.00,weatherlink.com 1.10,2013-01-15 00:23:00,
2013-01-14 17:38:00,0.0,-7.0,30.77,WSW,252,1.0,6.0,71,0.00,,,0.00,weatherlink.com 1.10,2013-01-15 00:38:00,
2013-01-14 17:53:00,-1.3,-8.0,30.77,WSW,252,1.0,8.0,72,0.00,,,0.00,weatherlink.com 1.10,2013-01-15 00:53:00,
2013-01-14 18:08:00,-0.4,-8.0,30.77,WSW,249,3.0,13.0,70,0.00,,,0.00,weatherlink.com 1.10,2013-01-15 01:08:00,
2013-01-14 18:24:00,1.4,-8.0,30.77,WNW,290,6.0,19.0,64,0.00,,,0.00,weatherlink.com 1.10,2013-01-15 01:24:00,
2013-01-14 18:39:00,1.9,-8.0,30.76,WSW,244,9.0,17.0,62,0.00,,,0.00,weatherlink.com 1.10,2013-01-15 01:39:00,
2013-01-14 18:54:00,1.9,-9.0,30.76,WSW,239,8.0,18.0,60,0.00,,,0.00,weatherlink.com 1.10,2013-01-15 01:54:00,
2013-01-14 19:09:00,1.8,-10.0,30.75,SW,229,6.0,19.0,59,0.00,,,0.00,weatherlink.com 1.10,2013-01-15 02:09:00,
2013-01-14 19:24:00,0.9,-9.0,30.74,West,261,6.0,19.0,63,0.00,,,0.00,weatherlink.com 1.10,2013-01-15 02:24:00,
2013-01-14 19:39:00,1.0,-10.0,30.73,NW,305,4.0,18.0,61,0.00,,,0.00,weatherlink.com 1.10,2013-01-15 02:39:00,
2013-01-14 19:55:00,1.1,-10.0,30.73,WSW,257,8.0,18.0,60,0.00,,,0.00,weatherlink.com 1.10,2013-01-15 02:55:00,
2013-01-14 20:10:00,0.7,-10.0,30.73,West,266,7.0,20.0,61,0.00,,,0.00,weatherlink.com 1.10,2013-01-15 03:10:00,
2013-01-14 20:25:00,0.7,-10.0,30.73,West,261,11.0,20.0,60,0.00,,,0.00,weatherlink.com 1.10,2013-01-15 03:25:00,
2013-01-14 20:40:00,0.9,-10.0,30.72,WSW,244,4.0,22.0,60,0.00,,,0.00,weatherlink.com 1.10,2013-01-15 03:40:00,
2013-01-14 20:55:00,1.4,-11.0,30.72,WSW,246,2.0,19.0,57,0.00,,,0.00,weatherlink.com 1.10,2013-01-15 03:55:00,
2013-01-14 21:10:00,1.4,-10.0,30.71,West,262,10.0,24.0,58,0.00,,,0.00,weatherlink.com 1.10,2013-01-15 04:10:00,
2013-01-14 21:25:00,1.5,-11.0,30.71,WSW,238,10.0,22.0,57,0.00,,,0.00,weatherlink.com 1.10,2013-01-15 04:25:00,
2013-01-14 21:40:00,1.6,-11.0,30.70,West,267,19.0,24.0,57,0.00,,,0.00,weatherlink.com 1.10,2013-01-15 04:40:00,
2013-01-14 21:55:00,1.6,-11.0,30.70,West,272,9.0,26.0,57,0.00,,,0.00,weatherlink.com 1.10,2013-01-15 04:55:00,
2013-01-14 22:10:00,1.5,-11.0,30.70,West,271,11.0,26.0,57,0.00,,,0.00,weatherlink.com 1.10,2013-01-15 05:10:00,
2013-01-14 22:25:00,1.4,-11.0,30.71,WSW,246,14.0,28.0,57,0.00,,,0.00,weatherlink.com 1.10,2013-01-15 05:25:00,
2013-01-14 22:40:00,1.3,-11.0,30.71,West,268,10.0,24.0,56,0.00,,,0.00,weatherlink.com 1.10,2013-01-15 05:40:00,
2013-01-14 22:55:00,1.1,-11.0,30.71,WSW,252,8.0,23.0,56,0.00,,,0.00,weatherlink.com 1.10,2013-01-15 05:55:00,
2013-01-14 23:10:00,1.3,-12.0,30.71,West,262,7.0,24.0,55,0.00,,,0.00,weatherlink.com 1.10,2013-01-15 06:10:00,
2013-01-14 23:26:00,1.3,-12.0,30.70,WSW,242,9.0,23.0,54,0.00,,,0.00,weatherlink.com 1.10,2013-01-15 06:26:00,
2013-01-14 23:41:00,1.3,-12.0,30.71,SW,224,9.0,28.0,54,0.00,,,0.00,weatherlink.com 1.10,2013-01-15 06:41:00,
2013-01-14 23:56:00,1.2,-12.0,30.71,West,271,18.0,27.0,54,0.00,,,0.00,weatherlink.com 1.10,2013-01-15 06:56:00,